sensor_id;sensor_type;location;lat;lon;timestamp;P1;durP1;ratioP1;P2;durP2;ratioP2
11998;SDS011;40817;51.520;9.954;2023-12-28T00:00:38;3.33;;;1.30;;
11998;SDS011;40817;51.520;9.954;2023-12-28T00:03:06;1.90;;;1.10;;
11998;SDS011;40817;51.520;9.954;2023-12-28T00:05:33;1.67;;;0.98;;
11998;SDS011;40817;51.520;9.954;2023-12-28T00:08:02;2.95;;;1.20;;
11998;SDS011;40817;51.520;9.954;2023-12-28T00:10:29;1.75;;;1.10;;
11998;SDS011;40817;51.520;9.954;2023-12-28T00:12:57;3.00;;;1.15;;
11998;SDS011;40817;51.520;9.954;2023-12-28T00:15:24;3.97;;;1.33;;
11998;SDS011;40817;51.520;9.954;2023-12-28T00:17:52;2.80;;;1.30;;
11998;SDS011;40817;51.520;9.954;2023-12-28T00:20:19;2.83;;;1.02;;
11998;SDS011;40817;51.520;9.954;2023-12-28T00:22:46;3.08;;;1.40;;
11998;SDS011;40817;51.520;9.954;2023-12-28T00:25:15;2.97;;;1.30;;
11998;SDS011;40817;51.520;9.954;2023-12-28T00:27:42;3.03;;;1.50;;
11998;SDS011;40817;51.520;9.954;2023-12-28T00:30:11;3.90;;;1.50;;
11998;SDS011;40817;51.520;9.954;2023-12-28T00:32:39;2.78;;;1.20;;
11998;SDS011;40817;51.520;9.954;2023-12-28T00:35:08;2.92;;;1.60;;
11998;SDS011;40817;51.520;9.954;2023-12-28T00:37:35;3.10;;;1.20;;
11998;SDS011;40817;51.520;9.954;2023-12-28T00:40:03;3.67;;;1.30;;
11998;SDS011;40817;51.520;9.954;2023-12-28T00:42:33;1.83;;;1.25;;
11998;SDS011;40817;51.520;9.954;2023-12-28T00:45:01;3.13;;;1.05;;
11998;SDS011;40817;51.520;9.954;2023-12-28T00:47:28;2.90;;;1.00;;
11998;SDS011;40817;51.520;9.954;2023-12-28T00:49:56;2.65;;;1.33;;
11998;SDS011;40817;51.520;9.954;2023-12-28T00:52:23;3.65;;;1.67;;
11998;SDS011;40817;51.520;9.954;2023-12-28T00:54:50;2.95;;;1.45;;
11998;SDS011;40817;51.520;9.954;2023-12-28T00:57:17;2.22;;;1.20;;
11998;SDS011;40817;51.520;9.954;2023-12-28T00:59:46;3.13;;;1.30;;
11998;SDS011;40817;51.520;9.954;2023-12-28T01:02:13;2.22;;;1.33;;
11998;SDS011;40817;51.520;9.954;2023-12-28T01:04:40;2.85;;;1.15;;
11998;SDS011;40817;51.520;9.954;2023-12-28T01:07:08;4.57;;;1.58;;
11998;SDS011;40817;51.520;9.954;2023-12-28T01:09:35;3.03;;;1.17;;
11998;SDS011;40817;51.520;9.954;2023-12-28T01:12:02;3.60;;;1.30;;
11998;SDS011;40817;51.520;9.954;2023-12-28T01:14:31;5.00;;;1.65;;
11998;SDS011;40817;51.520;9.954;2023-12-28T01:17:00;4.18;;;1.80;;
11998;SDS011;40817;51.520;9.954;2023-12-28T01:19:27;2.67;;;1.20;;
11998;SDS011;40817;51.520;9.954;2023-12-28T01:21:54;4.72;;;1.77;;
11998;SDS011;40817;51.520;9.954;2023-12-28T01:24:22;3.67;;;1.60;;
11998;SDS011;40817;51.520;9.954;2023-12-28T01:26:49;3.80;;;1.80;;
11998;SDS011;40817;51.520;9.954;2023-12-28T01:29:16;2.50;;;1.40;;
11998;SDS011;40817;51.520;9.954;2023-12-28T01:31:44;3.35;;;1.67;;
11998;SDS011;40817;51.520;9.954;2023-12-28T01:34:12;3.03;;;2.00;;
11998;SDS011;40817;51.520;9.954;2023-12-28T01:36:39;2.75;;;1.38;;
11998;SDS011;40817;51.520;9.954;2023-12-28T01:39:09;3.53;;;1.42;;
11998;SDS011;40817;51.520;9.954;2023-12-28T01:41:37;5.00;;;1.70;;
11998;SDS011;40817;51.520;9.954;2023-12-28T01:44:04;4.25;;;1.75;;
11998;SDS011;40817;51.520;9.954;2023-12-28T01:46:32;3.67;;;1.70;;
11998;SDS011;40817;51.520;9.954;2023-12-28T01:49:00;4.30;;;1.83;;
11998;SDS011;40817;51.520;9.954;2023-12-28T01:51:29;3.00;;;1.70;;
11998;SDS011;40817;51.520;9.954;2023-12-28T01:53:57;4.30;;;1.70;;
11998;SDS011;40817;51.520;9.954;2023-12-28T01:56:24;3.53;;;1.67;;
11998;SDS011;40817;51.520;9.954;2023-12-28T01:58:52;2.88;;;1.58;;
11998;SDS011;40817;51.520;9.954;2023-12-28T02:01:20;4.90;;;1.60;;
11998;SDS011;40817;51.520;9.954;2023-12-28T02:03:48;2.83;;;1.75;;
11998;SDS011;40817;51.520;9.954;2023-12-28T02:06:15;2.92;;;1.60;;
11998;SDS011;40817;51.520;9.954;2023-12-28T02:08:45;3.60;;;1.70;;
11998;SDS011;40817;51.520;9.954;2023-12-28T02:11:13;3.55;;;1.95;;
11998;SDS011;40817;51.520;9.954;2023-12-28T02:13:40;4.35;;;1.63;;
11998;SDS011;40817;51.520;9.954;2023-12-28T02:16:09;3.28;;;1.67;;
11998;SDS011;40817;51.520;9.954;2023-12-28T02:18:45;2.63;;;1.52;;
11998;SDS011;40817;51.520;9.954;2023-12-28T02:21:17;6.05;;;1.95;;
11998;SDS011;40817;51.520;9.954;2023-12-28T02:23:49;2.75;;;1.83;;
11998;SDS011;40817;51.520;9.954;2023-12-28T02:26:18;4.03;;;2.20;;
11998;SDS011;40817;51.520;9.954;2023-12-28T02:28:45;3.33;;;1.63;;
11998;SDS011;40817;51.520;9.954;2023-12-28T02:31:14;5.88;;;1.95;;
11998;SDS011;40817;51.520;9.954;2023-12-28T02:33:48;3.15;;;1.83;;
11998;SDS011;40817;51.520;9.954;2023-12-28T02:36:24;2.57;;;1.73;;
11998;SDS011;40817;51.520;9.954;2023-12-28T02:38:56;3.40;;;1.83;;
11998;SDS011;40817;51.520;9.954;2023-12-28T02:41:29;4.28;;;2.30;;
11998;SDS011;40817;51.520;9.954;2023-12-28T02:43:58;3.08;;;1.90;;
11998;SDS011;40817;51.520;9.954;2023-12-28T02:46:26;3.35;;;1.90;;
11998;SDS011;40817;51.520;9.954;2023-12-28T02:48:53;3.08;;;1.70;;
11998;SDS011;40817;51.520;9.954;2023-12-28T02:51:22;3.90;;;2.25;;
11998;SDS011;40817;51.520;9.954;2023-12-28T02:53:49;2.75;;;1.70;;
11998;SDS011;40817;51.520;9.954;2023-12-28T02:56:17;2.97;;;2.00;;
11998;SDS011;40817;51.520;9.954;2023-12-28T02:58:45;3.95;;;1.52;;
11998;SDS011;40817;51.520;9.954;2023-12-28T03:01:12;3.40;;;1.63;;
11998;SDS011;40817;51.520;9.954;2023-12-28T03:03:40;5.72;;;1.95;;
11998;SDS011;40817;51.520;9.954;2023-12-28T03:06:07;5.50;;;2.25;;
11998;SDS011;40817;51.520;9.954;2023-12-28T03:08:34;3.70;;;2.00;;
11998;SDS011;40817;51.520;9.954;2023-12-28T03:11:02;2.67;;;1.77;;
11998;SDS011;40817;51.520;9.954;2023-12-28T03:13:29;3.95;;;1.92;;
11998;SDS011;40817;51.520;9.954;2023-12-28T03:15:58;3.53;;;2.00;;
11998;SDS011;40817;51.520;9.954;2023-12-28T03:18:26;7.70;;;2.25;;
11998;SDS011;40817;51.520;9.954;2023-12-28T03:20:53;3.25;;;1.83;;
11998;SDS011;40817;51.520;9.954;2023-12-28T03:23:20;3.58;;;1.60;;
11998;SDS011;40817;51.520;9.954;2023-12-28T03:25:47;3.50;;;1.85;;
11998;SDS011;40817;51.520;9.954;2023-12-28T03:28:15;3.85;;;2.10;;
11998;SDS011;40817;51.520;9.954;2023-12-28T03:30:42;4.88;;;2.00;;
11998;SDS011;40817;51.520;9.954;2023-12-28T03:33:10;4.55;;;1.73;;
11998;SDS011;40817;51.520;9.954;2023-12-28T03:35:38;3.47;;;1.70;;
11998;SDS011;40817;51.520;9.954;2023-12-28T03:38:05;5.32;;;1.80;;
11998;SDS011;40817;51.520;9.954;2023-12-28T03:40:33;3.13;;;1.83;;
11998;SDS011;40817;51.520;9.954;2023-12-28T03:43:00;4.38;;;1.80;;
11998;SDS011;40817;51.520;9.954;2023-12-28T03:45:27;3.47;;;1.40;;
11998;SDS011;40817;51.520;9.954;2023-12-28T03:47:54;2.75;;;1.80;;
11998;SDS011;40817;51.520;9.954;2023-12-28T03:50:23;3.78;;;2.00;;
11998;SDS011;40817;51.520;9.954;2023-12-28T03:52:50;4.50;;;1.92;;
11998;SDS011;40817;51.520;9.954;2023-12-28T03:55:17;3.50;;;1.98;;
11998;SDS011;40817;51.520;9.954;2023-12-28T03:57:45;3.33;;;2.00;;
11998;SDS011;40817;51.520;9.954;2023-12-28T04:00:13;4.05;;;2.17;;
11998;SDS011;40817;51.520;9.954;2023-12-28T04:02:41;3.75;;;2.00;;
11998;SDS011;40817;51.520;9.954;2023-12-28T04:05:09;4.70;;;2.50;;
11998;SDS011;40817;51.520;9.954;2023-12-28T04:07:37;3.38;;;2.03;;
11998;SDS011;40817;51.520;9.954;2023-12-28T04:10:05;4.85;;;1.95;;
11998;SDS011;40817;51.520;9.954;2023-12-28T04:12:33;3.08;;;1.73;;
11998;SDS011;40817;51.520;9.954;2023-12-28T04:15:02;5.07;;;2.13;;
11998;SDS011;40817;51.520;9.954;2023-12-28T04:17:31;4.03;;;2.10;;
11998;SDS011;40817;51.520;9.954;2023-12-28T04:19:58;5.88;;;1.90;;
11998;SDS011;40817;51.520;9.954;2023-12-28T04:22:25;4.82;;;1.80;;
11998;SDS011;40817;51.520;9.954;2023-12-28T04:24:54;5.05;;;2.20;;
11998;SDS011;40817;51.520;9.954;2023-12-28T04:27:21;3.92;;;2.00;;
11998;SDS011;40817;51.520;9.954;2023-12-28T04:29:48;3.38;;;1.70;;
11998;SDS011;40817;51.520;9.954;2023-12-28T04:32:16;3.08;;;1.85;;
11998;SDS011;40817;51.520;9.954;2023-12-28T04:34:43;3.35;;;1.85;;
11998;SDS011;40817;51.520;9.954;2023-12-28T04:37:11;4.35;;;1.92;;
11998;SDS011;40817;51.520;9.954;2023-12-28T04:39:38;3.25;;;1.83;;
11998;SDS011;40817;51.520;9.954;2023-12-28T04:42:07;4.90;;;2.47;;
11998;SDS011;40817;51.520;9.954;2023-12-28T04:44:36;4.85;;;1.50;;
11998;SDS011;40817;51.520;9.954;2023-12-28T04:47:04;3.80;;;1.75;;
11998;SDS011;40817;51.520;9.954;2023-12-28T04:49:32;4.82;;;2.03;;
11998;SDS011;40817;51.520;9.954;2023-12-28T04:51:59;4.55;;;2.13;;
11998;SDS011;40817;51.520;9.954;2023-12-28T04:54:27;3.55;;;2.10;;
11998;SDS011;40817;51.520;9.954;2023-12-28T04:56:54;2.97;;;1.92;;
11998;SDS011;40817;51.520;9.954;2023-12-28T04:59:22;2.72;;;1.70;;
11998;SDS011;40817;51.520;9.954;2023-12-28T05:01:50;3.65;;;1.70;;
11998;SDS011;40817;51.520;9.954;2023-12-28T05:04:17;3.30;;;1.88;;
11998;SDS011;40817;51.520;9.954;2023-12-28T05:06:44;4.70;;;1.92;;
11998;SDS011;40817;51.520;9.954;2023-12-28T05:09:11;3.63;;;2.10;;
11998;SDS011;40817;51.520;9.954;2023-12-28T05:11:39;3.50;;;1.88;;
11998;SDS011;40817;51.520;9.954;2023-12-28T05:14:06;3.03;;;1.80;;
11998;SDS011;40817;51.520;9.954;2023-12-28T05:16:35;3.67;;;1.92;;
11998;SDS011;40817;51.520;9.954;2023-12-28T05:19:02;4.53;;;2.00;;
11998;SDS011;40817;51.520;9.954;2023-12-28T05:21:29;3.55;;;1.83;;
11998;SDS011;40817;51.520;9.954;2023-12-28T05:23:57;2.92;;;1.70;;
11998;SDS011;40817;51.520;9.954;2023-12-28T05:26:24;4.18;;;2.10;;
11998;SDS011;40817;51.520;9.954;2023-12-28T05:28:52;4.25;;;1.83;;
11998;SDS011;40817;51.520;9.954;2023-12-28T05:31:19;3.85;;;2.20;;
11998;SDS011;40817;51.520;9.954;2023-12-28T05:33:48;3.55;;;1.80;;
11998;SDS011;40817;51.520;9.954;2023-12-28T05:36:15;3.22;;;2.08;;
11998;SDS011;40817;51.520;9.954;2023-12-28T05:38:42;6.68;;;2.03;;
11998;SDS011;40817;51.520;9.954;2023-12-28T05:41:10;6.22;;;2.03;;
11998;SDS011;40817;51.520;9.954;2023-12-28T05:43:37;2.78;;;1.52;;
11998;SDS011;40817;51.520;9.954;2023-12-28T05:46:05;3.08;;;1.80;;
11998;SDS011;40817;51.520;9.954;2023-12-28T05:48:32;3.92;;;1.83;;
11998;SDS011;40817;51.520;9.954;2023-12-28T05:51:01;3.40;;;1.98;;
11998;SDS011;40817;51.520;9.954;2023-12-28T05:53:28;4.82;;;1.95;;
11998;SDS011;40817;51.520;9.954;2023-12-28T05:55:55;3.83;;;1.70;;
11998;SDS011;40817;51.520;9.954;2023-12-28T05:58:28;2.80;;;1.52;;
11998;SDS011;40817;51.520;9.954;2023-12-28T06:00:55;3.88;;;1.77;;
11998;SDS011;40817;51.520;9.954;2023-12-28T06:03:22;3.75;;;1.90;;
11998;SDS011;40817;51.520;9.954;2023-12-28T06:05:53;3.40;;;1.60;;
11998;SDS011;40817;51.520;9.954;2023-12-28T06:08:22;4.07;;;1.75;;
11998;SDS011;40817;51.520;9.954;2023-12-28T06:10:49;4.13;;;1.88;;
11998;SDS011;40817;51.520;9.954;2023-12-28T06:13:17;3.92;;;2.10;;
11998;SDS011;40817;51.520;9.954;2023-12-28T06:15:44;4.35;;;2.40;;
11998;SDS011;40817;51.520;9.954;2023-12-28T06:18:11;4.80;;;1.80;;
11998;SDS011;40817;51.520;9.954;2023-12-28T06:20:39;2.53;;;1.42;;
11998;SDS011;40817;51.520;9.954;2023-12-28T06:23:08;2.10;;;1.40;;
11998;SDS011;40817;51.520;9.954;2023-12-28T06:25:36;3.30;;;1.70;;
11998;SDS011;40817;51.520;9.954;2023-12-28T06:28:04;2.95;;;1.77;;
11998;SDS011;40817;51.520;9.954;2023-12-28T06:30:31;3.88;;;1.80;;
11998;SDS011;40817;51.520;9.954;2023-12-28T06:32:59;2.72;;;1.92;;
11998;SDS011;40817;51.520;9.954;2023-12-28T06:35:26;4.65;;;1.77;;
11998;SDS011;40817;51.520;9.954;2023-12-28T06:37:53;3.30;;;1.73;;
11998;SDS011;40817;51.520;9.954;2023-12-28T06:40:20;4.60;;;1.80;;
11998;SDS011;40817;51.520;9.954;2023-12-28T06:42:49;3.38;;;1.92;;
11998;SDS011;40817;51.520;9.954;2023-12-28T06:45:16;2.90;;;1.83;;
11998;SDS011;40817;51.520;9.954;2023-12-28T06:47:44;3.22;;;1.70;;
11998;SDS011;40817;51.520;9.954;2023-12-28T06:50:11;2.40;;;1.58;;
11998;SDS011;40817;51.520;9.954;2023-12-28T06:52:38;3.35;;;1.80;;
11998;SDS011;40817;51.520;9.954;2023-12-28T06:55:06;3.42;;;1.90;;
11998;SDS011;40817;51.520;9.954;2023-12-28T06:57:33;4.40;;;2.47;;
11998;SDS011;40817;51.520;9.954;2023-12-28T07:00:02;5.18;;;2.10;;
11998;SDS011;40817;51.520;9.954;2023-12-28T07:02:32;3.10;;;1.75;;
11998;SDS011;40817;51.520;9.954;2023-12-28T07:04:59;3.97;;;2.17;;
11998;SDS011;40817;51.520;9.954;2023-12-28T07:07:26;3.25;;;1.80;;
11998;SDS011;40817;51.520;9.954;2023-12-28T07:09:54;3.55;;;1.80;;
11998;SDS011;40817;51.520;9.954;2023-12-28T07:12:22;5.55;;;1.75;;
11998;SDS011;40817;51.520;9.954;2023-12-28T07:14:50;2.92;;;1.63;;
11998;SDS011;40817;51.520;9.954;2023-12-28T07:17:18;5.75;;;2.00;;
11998;SDS011;40817;51.520;9.954;2023-12-28T07:19:46;3.97;;;1.85;;
11998;SDS011;40817;51.520;9.954;2023-12-28T07:22:12;3.50;;;1.63;;
11998;SDS011;40817;51.520;9.954;2023-12-28T07:24:39;2.55;;;1.70;;
11998;SDS011;40817;51.520;9.954;2023-12-28T07:27:07;2.40;;;1.58;;
11998;SDS011;40817;51.520;9.954;2023-12-28T07:29:34;3.33;;;1.63;;
11998;SDS011;40817;51.520;9.954;2023-12-28T07:32:01;1.92;;;1.55;;
11998;SDS011;40817;51.520;9.954;2023-12-28T07:34:30;3.63;;;2.00;;
11998;SDS011;40817;51.520;9.954;2023-12-28T07:36:58;3.90;;;2.38;;
11998;SDS011;40817;51.520;9.954;2023-12-28T07:39:25;4.20;;;1.92;;
11998;SDS011;40817;51.520;9.954;2023-12-28T07:41:52;4.05;;;1.92;;
11998;SDS011;40817;51.520;9.954;2023-12-28T07:44:19;3.92;;;1.80;;
11998;SDS011;40817;51.520;9.954;2023-12-28T07:46:47;4.25;;;1.90;;
11998;SDS011;40817;51.520;9.954;2023-12-28T07:49:14;4.00;;;2.10;;
11998;SDS011;40817;51.520;9.954;2023-12-28T07:51:42;3.17;;;1.75;;
11998;SDS011;40817;51.520;9.954;2023-12-28T07:54:10;4.65;;;1.88;;
11998;SDS011;40817;51.520;9.954;2023-12-28T07:56:37;4.32;;;1.90;;
11998;SDS011;40817;51.520;9.954;2023-12-28T07:59:05;3.70;;;2.35;;
11998;SDS011;40817;51.520;9.954;2023-12-28T08:01:34;4.07;;;2.17;;
11998;SDS011;40817;51.520;9.954;2023-12-28T08:04:01;3.28;;;2.00;;
11998;SDS011;40817;51.520;9.954;2023-12-28T08:06:29;3.78;;;2.20;;
11998;SDS011;40817;51.520;9.954;2023-12-28T08:08:58;2.97;;;1.88;;
11998;SDS011;40817;51.520;9.954;2023-12-28T08:11:26;3.95;;;2.10;;
11998;SDS011;40817;51.520;9.954;2023-12-28T08:13:54;3.25;;;1.92;;
11998;SDS011;40817;51.520;9.954;2023-12-28T08:16:21;4.55;;;2.08;;
11998;SDS011;40817;51.520;9.954;2023-12-28T08:18:48;4.00;;;2.13;;
11998;SDS011;40817;51.520;9.954;2023-12-28T08:21:15;3.80;;;2.10;;
11998;SDS011;40817;51.520;9.954;2023-12-28T08:23:43;2.85;;;1.77;;
11998;SDS011;40817;51.520;9.954;2023-12-28T08:26:15;3.17;;;1.88;;
11998;SDS011;40817;51.520;9.954;2023-12-28T08:28:42;2.75;;;1.77;;
11998;SDS011;40817;51.520;9.954;2023-12-28T08:31:09;3.85;;;2.05;;
11998;SDS011;40817;51.520;9.954;2023-12-28T08:33:37;3.15;;;1.95;;
11998;SDS011;40817;51.520;9.954;2023-12-28T08:36:05;4.40;;;1.80;;
11998;SDS011;40817;51.520;9.954;2023-12-28T08:38:34;4.25;;;1.95;;
11998;SDS011;40817;51.520;9.954;2023-12-28T08:41:01;3.50;;;1.85;;
11998;SDS011;40817;51.520;9.954;2023-12-28T08:43:35;2.95;;;2.03;;
11998;SDS011;40817;51.520;9.954;2023-12-28T08:46:02;2.38;;;1.40;;
11998;SDS011;40817;51.520;9.954;2023-12-28T08:48:33;3.95;;;1.70;;
11998;SDS011;40817;51.520;9.954;2023-12-28T08:51:01;4.88;;;2.25;;
11998;SDS011;40817;51.520;9.954;2023-12-28T08:53:28;2.80;;;1.75;;
11998;SDS011;40817;51.520;9.954;2023-12-28T08:55:55;5.70;;;1.98;;
11998;SDS011;40817;51.520;9.954;2023-12-28T08:58:22;5.40;;;2.25;;
11998;SDS011;40817;51.520;9.954;2023-12-28T09:00:51;3.38;;;1.80;;
11998;SDS011;40817;51.520;9.954;2023-12-28T09:03:18;4.57;;;1.80;;
11998;SDS011;40817;51.520;9.954;2023-12-28T09:05:46;3.25;;;1.75;;
11998;SDS011;40817;51.520;9.954;2023-12-28T09:08:13;3.63;;;1.80;;
11998;SDS011;40817;51.520;9.954;2023-12-28T09:10:40;3.15;;;1.73;;
11998;SDS011;40817;51.520;9.954;2023-12-28T09:13:08;5.80;;;2.08;;
11998;SDS011;40817;51.520;9.954;2023-12-28T09:15:42;5.72;;;1.95;;
11998;SDS011;40817;51.520;9.954;2023-12-28T09:18:12;3.47;;;1.80;;
11998;SDS011;40817;51.520;9.954;2023-12-28T09:20:39;6.80;;;2.65;;
11998;SDS011;40817;51.520;9.954;2023-12-28T09:23:06;3.58;;;1.77;;
11998;SDS011;40817;51.520;9.954;2023-12-28T09:25:34;6.03;;;1.90;;
11998;SDS011;40817;51.520;9.954;2023-12-28T09:28:03;4.22;;;2.00;;
11998;SDS011;40817;51.520;9.954;2023-12-28T09:30:31;5.40;;;2.28;;
11998;SDS011;40817;51.520;9.954;2023-12-28T09:32:58;4.45;;;2.15;;
11998;SDS011;40817;51.520;9.954;2023-12-28T09:35:27;6.68;;;2.65;;
11998;SDS011;40817;51.520;9.954;2023-12-28T09:37:55;3.83;;;1.73;;
11998;SDS011;40817;51.520;9.954;2023-12-28T09:40:22;3.13;;;1.80;;
11998;SDS011;40817;51.520;9.954;2023-12-28T09:42:51;3.85;;;2.10;;
11998;SDS011;40817;51.520;9.954;2023-12-28T09:45:30;4.55;;;1.80;;
11998;SDS011;40817;51.520;9.954;2023-12-28T09:47:57;4.60;;;2.00;;
11998;SDS011;40817;51.520;9.954;2023-12-28T09:50:25;6.43;;;1.67;;
11998;SDS011;40817;51.520;9.954;2023-12-28T09:52:54;4.75;;;1.83;;
11998;SDS011;40817;51.520;9.954;2023-12-28T09:55:22;5.93;;;1.77;;
11998;SDS011;40817;51.520;9.954;2023-12-28T09:57:49;3.30;;;1.95;;
11998;SDS011;40817;51.520;9.954;2023-12-28T10:00:18;6.70;;;2.17;;
11998;SDS011;40817;51.520;9.954;2023-12-28T10:02:45;4.90;;;2.05;;
11998;SDS011;40817;51.520;9.954;2023-12-28T10:05:13;5.80;;;2.03;;
11998;SDS011;40817;51.520;9.954;2023-12-28T10:07:43;3.72;;;1.55;;
11998;SDS011;40817;51.520;9.954;2023-12-28T10:10:11;2.67;;;1.90;;
11998;SDS011;40817;51.520;9.954;2023-12-28T10:12:38;3.70;;;1.90;;
11998;SDS011;40817;51.520;9.954;2023-12-28T10:15:07;3.45;;;1.70;;
11998;SDS011;40817;51.520;9.954;2023-12-28T10:17:35;4.88;;;2.20;;
11998;SDS011;40817;51.520;9.954;2023-12-28T10:20:03;3.00;;;1.60;;
11998;SDS011;40817;51.520;9.954;2023-12-28T10:22:34;4.38;;;1.92;;
11998;SDS011;40817;51.520;9.954;2023-12-28T10:25:03;3.70;;;1.90;;
11998;SDS011;40817;51.520;9.954;2023-12-28T10:27:32;5.72;;;2.00;;
11998;SDS011;40817;51.520;9.954;2023-12-28T10:30:06;4.40;;;1.77;;
11998;SDS011;40817;51.520;9.954;2023-12-28T10:32:35;4.28;;;2.03;;
11998;SDS011;40817;51.520;9.954;2023-12-28T10:35:06;4.47;;;1.95;;
11998;SDS011;40817;51.520;9.954;2023-12-28T10:37:34;5.20;;;2.20;;
11998;SDS011;40817;51.520;9.954;2023-12-28T10:40:07;3.70;;;1.83;;
11998;SDS011;40817;51.520;9.954;2023-12-28T10:42:42;5.00;;;1.80;;
11998;SDS011;40817;51.520;9.954;2023-12-28T10:45:18;3.75;;;1.98;;
11998;SDS011;40817;51.520;9.954;2023-12-28T10:47:54;3.55;;;1.88;;
11998;SDS011;40817;51.520;9.954;2023-12-28T10:50:33;3.33;;;1.40;;
11998;SDS011;40817;51.520;9.954;2023-12-28T10:53:15;3.00;;;1.70;;
11998;SDS011;40817;51.520;9.954;2023-12-28T10:56:03;6.30;;;2.67;;
11998;SDS011;40817;51.520;9.954;2023-12-28T10:58:48;3.05;;;1.73;;
11998;SDS011;40817;51.520;9.954;2023-12-28T11:01:21;4.45;;;1.42;;
11998;SDS011;40817;51.520;9.954;2023-12-28T11:03:57;4.13;;;1.65;;
11998;SDS011;40817;51.520;9.954;2023-12-28T11:06:33;3.47;;;1.80;;
11998;SDS011;40817;51.520;9.954;2023-12-28T11:09:03;6.35;;;1.90;;
11998;SDS011;40817;51.520;9.954;2023-12-28T11:11:32;5.38;;;2.05;;
11998;SDS011;40817;51.520;9.954;2023-12-28T11:13:59;4.30;;;1.60;;
11998;SDS011;40817;51.520;9.954;2023-12-28T11:16:27;3.92;;;1.45;;
11998;SDS011;40817;51.520;9.954;2023-12-28T11:18:56;4.65;;;1.52;;
11998;SDS011;40817;51.520;9.954;2023-12-28T11:21:25;6.22;;;2.10;;
11998;SDS011;40817;51.520;9.954;2023-12-28T11:23:52;4.32;;;1.83;;
11998;SDS011;40817;51.520;9.954;2023-12-28T11:26:21;3.72;;;1.60;;
11998;SDS011;40817;51.520;9.954;2023-12-28T11:28:50;4.35;;;1.45;;
11998;SDS011;40817;51.520;9.954;2023-12-28T11:31:26;4.47;;;1.55;;
11998;SDS011;40817;51.520;9.954;2023-12-28T11:33:53;3.10;;;1.63;;
11998;SDS011;40817;51.520;9.954;2023-12-28T11:36:22;3.10;;;1.45;;
11998;SDS011;40817;51.520;9.954;2023-12-28T11:38:57;5.13;;;1.70;;
11998;SDS011;40817;51.520;9.954;2023-12-28T11:41:32;4.25;;;1.63;;
11998;SDS011;40817;51.520;9.954;2023-12-28T11:44:03;5.95;;;1.52;;
11998;SDS011;40817;51.520;9.954;2023-12-28T11:46:32;2.83;;;1.73;;
11998;SDS011;40817;51.520;9.954;2023-12-28T11:49:04;2.80;;;1.50;;
11998;SDS011;40817;51.520;9.954;2023-12-28T11:51:32;2.67;;;1.70;;
11998;SDS011;40817;51.520;9.954;2023-12-28T11:54:02;5.13;;;1.42;;
11998;SDS011;40817;51.520;9.954;2023-12-28T11:56:30;4.65;;;1.55;;
11998;SDS011;40817;51.520;9.954;2023-12-28T11:58:58;3.10;;;1.35;;
11998;SDS011;40817;51.520;9.954;2023-12-28T12:01:27;7.82;;;1.30;;
11998;SDS011;40817;51.520;9.954;2023-12-28T12:03:54;4.57;;;1.58;;
11998;SDS011;40817;51.520;9.954;2023-12-28T12:06:22;3.50;;;1.60;;
11998;SDS011;40817;51.520;9.954;2023-12-28T12:08:51;4.25;;;1.45;;
11998;SDS011;40817;51.520;9.954;2023-12-28T12:11:18;5.30;;;1.55;;
11998;SDS011;40817;51.520;9.954;2023-12-28T12:13:45;3.47;;;1.50;;
11998;SDS011;40817;51.520;9.954;2023-12-28T12:16:13;3.63;;;1.65;;
11998;SDS011;40817;51.520;9.954;2023-12-28T12:18:42;6.72;;;1.10;;
11998;SDS011;40817;51.520;9.954;2023-12-28T12:21:10;4.00;;;1.48;;
11998;SDS011;40817;51.520;9.954;2023-12-28T12:23:38;3.15;;;1.05;;
11998;SDS011;40817;51.520;9.954;2023-12-28T12:26:06;4.75;;;1.60;;
11998;SDS011;40817;51.520;9.954;2023-12-28T12:28:33;4.82;;;1.42;;
11998;SDS011;40817;51.520;9.954;2023-12-28T12:31:01;3.70;;;1.20;;
11998;SDS011;40817;51.520;9.954;2023-12-28T12:33:29;3.33;;;1.05;;
11998;SDS011;40817;51.520;9.954;2023-12-28T12:35:59;4.10;;;1.10;;
11998;SDS011;40817;51.520;9.954;2023-12-28T12:38:27;4.10;;;1.23;;
11998;SDS011;40817;51.520;9.954;2023-12-28T12:40:55;2.65;;;1.10;;
11998;SDS011;40817;51.520;9.954;2023-12-28T12:43:22;4.78;;;1.55;;
11998;SDS011;40817;51.520;9.954;2023-12-28T12:45:50;5.45;;;1.30;;
11998;SDS011;40817;51.520;9.954;2023-12-28T12:48:17;3.13;;;1.50;;
11998;SDS011;40817;51.520;9.954;2023-12-28T12:50:45;3.33;;;1.92;;
11998;SDS011;40817;51.520;9.954;2023-12-28T12:53:13;2.90;;;1.30;;
11998;SDS011;40817;51.520;9.954;2023-12-28T12:55:41;4.28;;;1.40;;
11998;SDS011;40817;51.520;9.954;2023-12-28T12:58:09;2.75;;;1.20;;
11998;SDS011;40817;51.520;9.954;2023-12-28T13:00:37;3.38;;;1.40;;
11998;SDS011;40817;51.520;9.954;2023-12-28T13:03:07;2.92;;;1.10;;
11998;SDS011;40817;51.520;9.954;2023-12-28T13:05:35;3.90;;;1.38;;
11998;SDS011;40817;51.520;9.954;2023-12-28T13:08:03;5.32;;;1.20;;
11998;SDS011;40817;51.520;9.954;2023-12-28T13:10:32;2.55;;;1.10;;
11998;SDS011;40817;51.520;9.954;2023-12-28T13:13:00;3.88;;;1.42;;
11998;SDS011;40817;51.520;9.954;2023-12-28T13:15:27;5.75;;;2.00;;
11998;SDS011;40817;51.520;9.954;2023-12-28T13:17:54;5.43;;;1.48;;
11998;SDS011;40817;51.520;9.954;2023-12-28T13:20:21;3.85;;;1.30;;
11998;SDS011;40817;51.520;9.954;2023-12-28T13:22:49;3.05;;;1.40;;
11998;SDS011;40817;51.520;9.954;2023-12-28T13:25:16;2.85;;;1.20;;
11998;SDS011;40817;51.520;9.954;2023-12-28T13:27:44;3.03;;;1.27;;
11998;SDS011;40817;51.520;9.954;2023-12-28T13:30:12;3.97;;;1.20;;
11998;SDS011;40817;51.520;9.954;2023-12-28T13:32:40;2.42;;;1.08;;
11998;SDS011;40817;51.520;9.954;2023-12-28T13:35:07;3.00;;;1.38;;
11998;SDS011;40817;51.520;9.954;2023-12-28T13:37:35;3.25;;;1.20;;
11998;SDS011;40817;51.520;9.954;2023-12-28T13:40:02;3.67;;;1.33;;
11998;SDS011;40817;51.520;9.954;2023-12-28T13:42:31;3.90;;;1.38;;
11998;SDS011;40817;51.520;9.954;2023-12-28T13:45:00;4.68;;;1.40;;
11998;SDS011;40817;51.520;9.954;2023-12-28T13:47:28;4.65;;;1.52;;
11998;SDS011;40817;51.520;9.954;2023-12-28T13:49:55;2.55;;;1.17;;
11998;SDS011;40817;51.520;9.954;2023-12-28T13:52:22;4.40;;;1.20;;
11998;SDS011;40817;51.520;9.954;2023-12-28T13:54:49;3.97;;;1.30;;
11998;SDS011;40817;51.520;9.954;2023-12-28T13:57:16;2.80;;;1.08;;
11998;SDS011;40817;51.520;9.954;2023-12-28T13:59:44;3.75;;;1.20;;
11998;SDS011;40817;51.520;9.954;2023-12-28T14:02:12;2.00;;;1.00;;
11998;SDS011;40817;51.520;9.954;2023-12-28T14:04:40;1.98;;;1.10;;
11998;SDS011;40817;51.520;9.954;2023-12-28T14:07:07;8.38;;;1.48;;
11998;SDS011;40817;51.520;9.954;2023-12-28T14:09:34;4.85;;;1.40;;
11998;SDS011;40817;51.520;9.954;2023-12-28T14:12:01;4.65;;;1.20;;
11998;SDS011;40817;51.520;9.954;2023-12-28T14:14:29;3.95;;;1.80;;
11998;SDS011;40817;51.520;9.954;2023-12-28T14:16:57;3.50;;;1.60;;
11998;SDS011;40817;51.520;9.954;2023-12-28T14:19:25;4.45;;;1.30;;
11998;SDS011;40817;51.520;9.954;2023-12-28T14:21:53;3.20;;;1.10;;
11998;SDS011;40817;51.520;9.954;2023-12-28T14:24:21;3.33;;;1.20;;
11998;SDS011;40817;51.520;9.954;2023-12-28T14:26:50;3.17;;;1.50;;
11998;SDS011;40817;51.520;9.954;2023-12-28T14:29:21;3.85;;;1.23;;
11998;SDS011;40817;51.520;9.954;2023-12-28T14:31:50;2.55;;;1.00;;
11998;SDS011;40817;51.520;9.954;2023-12-28T14:34:18;4.07;;;1.10;;
11998;SDS011;40817;51.520;9.954;2023-12-28T14:36:48;2.20;;;1.00;;
11998;SDS011;40817;51.520;9.954;2023-12-28T14:39:18;3.78;;;1.02;;
11998;SDS011;40817;51.520;9.954;2023-12-28T14:41:46;4.43;;;1.10;;
11998;SDS011;40817;51.520;9.954;2023-12-28T14:44:13;2.90;;;1.13;;
11998;SDS011;40817;51.520;9.954;2023-12-28T14:46:40;4.22;;;1.38;;
11998;SDS011;40817;51.520;9.954;2023-12-28T14:49:08;3.65;;;1.15;;
11998;SDS011;40817;51.520;9.954;2023-12-28T14:51:35;5.05;;;1.48;;
11998;SDS011;40817;51.520;9.954;2023-12-28T14:54:04;4.60;;;1.35;;